sensor_id;sensor_type;location;lat;lon;timestamp;P1;durP1;ratioP1;P2;durP2;ratioP2
66874;SDS011;53784;52.630;4.896;2023-07-29T00:01:01;7.47;;;2.50;;
66874;SDS011;53784;52.630;4.896;2023-07-29T00:03:26;5.60;;;2.10;;
66874;SDS011;53784;52.630;4.896;2023-07-29T00:05:52;8.30;;;2.33;;
66874;SDS011;53784;52.630;4.896;2023-07-29T00:08:17;6.78;;;2.58;;
66874;SDS011;53784;52.630;4.896;2023-07-29T00:10:43;6.45;;;2.55;;
66874;SDS011;53784;52.630;4.896;2023-07-29T00:13:08;6.57;;;2.53;;
66874;SDS011;53784;52.630;4.896;2023-07-29T00:15:33;5.53;;;2.60;;
66874;SDS011;53784;52.630;4.896;2023-07-29T00:17:59;6.85;;;2.63;;
66874;SDS011;53784;52.630;4.896;2023-07-29T00:20:24;5.63;;;2.28;;
66874;SDS011;53784;52.630;4.896;2023-07-29T00:22:49;6.70;;;2.17;;
66874;SDS011;53784;52.630;4.896;2023-07-29T00:25:17;8.77;;;2.00;;
66874;SDS011;53784;52.630;4.896;2023-07-29T00:27:43;6.20;;;2.08;;
66874;SDS011;53784;52.630;4.896;2023-07-29T00:30:08;4.40;;;2.00;;
66874;SDS011;53784;52.630;4.896;2023-07-29T00:32:34;6.25;;;2.35;;
66874;SDS011;53784;52.630;4.896;2023-07-29T00:35:00;8.40;;;2.70;;
66874;SDS011;53784;52.630;4.896;2023-07-29T00:37:26;6.57;;;2.45;;
66874;SDS011;53784;52.630;4.896;2023-07-29T00:39:51;6.57;;;2.40;;
66874;SDS011;53784;52.630;4.896;2023-07-29T00:42:16;6.47;;;2.28;;
66874;SDS011;53784;52.630;4.896;2023-07-29T00:44:42;11.75;;;2.63;;
66874;SDS011;53784;52.630;4.896;2023-07-29T00:47:07;7.25;;;2.40;;
66874;SDS011;53784;52.630;4.896;2023-07-29T00:49:32;6.18;;;2.28;;
66874;SDS011;53784;52.630;4.896;2023-07-29T00:51:58;4.32;;;1.77;;
66874;SDS011;53784;52.630;4.896;2023-07-29T00:54:23;6.95;;;2.00;;
66874;SDS011;53784;52.630;4.896;2023-07-29T00:56:49;7.40;;;2.38;;
66874;SDS011;53784;52.630;4.896;2023-07-29T00:59:14;5.97;;;1.90;;
66874;SDS011;53784;52.630;4.896;2023-07-29T01:01:40;7.30;;;2.10;;
66874;SDS011;53784;52.630;4.896;2023-07-29T01:04:05;5.93;;;2.00;;
66874;SDS011;53784;52.630;4.896;2023-07-29T01:06:36;5.10;;;1.80;;
66874;SDS011;53784;52.630;4.896;2023-07-29T01:09:08;10.15;;;2.00;;
66874;SDS011;53784;52.630;4.896;2023-07-29T01:11:57;7.57;;;2.17;;
66874;SDS011;53784;52.630;4.896;2023-07-29T01:14:47;6.35;;;2.10;;
66874;SDS011;53784;52.630;4.896;2023-07-29T01:17:32;5.68;;;1.90;;
66874;SDS011;53784;52.630;4.896;2023-07-29T01:22:28;5.38;;;2.50;;
66874;SDS011;53784;52.630;4.896;2023-07-29T01:24:56;5.63;;;2.70;;
66874;SDS011;53784;52.630;4.896;2023-07-29T01:27:21;8.10;;;3.25;;
66874;SDS011;53784;52.630;4.896;2023-07-29T01:29:47;8.63;;;3.65;;
66874;SDS011;53784;52.630;4.896;2023-07-29T01:32:14;8.00;;;3.33;;
66874;SDS011;53784;52.630;4.896;2023-07-29T01:34:47;8.65;;;3.13;;
66874;SDS011;53784;52.630;4.896;2023-07-29T01:37:15;5.65;;;2.30;;
66874;SDS011;53784;52.630;4.896;2023-07-29T01:39:43;10.35;;;2.10;;
66874;SDS011;53784;52.630;4.896;2023-07-29T01:42:10;8.43;;;2.15;;
66874;SDS011;53784;52.630;4.896;2023-07-29T01:44:35;5.85;;;1.60;;
66874;SDS011;53784;52.630;4.896;2023-07-29T01:47:01;5.95;;;1.80;;
66874;SDS011;53784;52.630;4.896;2023-07-29T01:49:26;7.28;;;1.77;;
66874;SDS011;53784;52.630;4.896;2023-07-29T01:51:52;6.28;;;1.85;;
66874;SDS011;53784;52.630;4.896;2023-07-29T01:54:17;5.70;;;1.85;;
66874;SDS011;53784;52.630;4.896;2023-07-29T01:56:42;8.63;;;2.22;;
66874;SDS011;53784;52.630;4.896;2023-07-29T01:59:08;6.65;;;2.08;;
66874;SDS011;53784;52.630;4.896;2023-07-29T02:01:33;6.40;;;2.28;;
66874;SDS011;53784;52.630;4.896;2023-07-29T02:03:58;6.45;;;1.90;;
66874;SDS011;53784;52.630;4.896;2023-07-29T02:06:24;6.47;;;1.80;;
66874;SDS011;53784;52.630;4.896;2023-07-29T02:08:50;8.95;;;1.83;;
66874;SDS011;53784;52.630;4.896;2023-07-29T02:11:16;5.35;;;1.88;;
66874;SDS011;53784;52.630;4.896;2023-07-29T02:13:41;6.18;;;1.92;;
66874;SDS011;53784;52.630;4.896;2023-07-29T02:16:06;8.52;;;1.88;;
66874;SDS011;53784;52.630;4.896;2023-07-29T02:18:32;9.23;;;2.35;;
66874;SDS011;53784;52.630;4.896;2023-07-29T02:20:57;5.45;;;2.00;;
66874;SDS011;53784;52.630;4.896;2023-07-29T02:23:22;7.45;;;1.90;;
66874;SDS011;53784;52.630;4.896;2023-07-29T02:25:48;7.90;;;2.03;;
66874;SDS011;53784;52.630;4.896;2023-07-29T02:28:13;6.20;;;1.88;;
66874;SDS011;53784;52.630;4.896;2023-07-29T02:30:41;5.82;;;1.85;;
66874;SDS011;53784;52.630;4.896;2023-07-29T02:33:06;8.48;;;2.08;;
66874;SDS011;53784;52.630;4.896;2023-07-29T02:35:31;6.32;;;2.15;;
66874;SDS011;53784;52.630;4.896;2023-07-29T02:37:57;6.05;;;1.77;;
66874;SDS011;53784;52.630;4.896;2023-07-29T02:40:22;9.90;;;2.35;;
66874;SDS011;53784;52.630;4.896;2023-07-29T02:42:48;6.97;;;2.20;;
66874;SDS011;53784;52.630;4.896;2023-07-29T02:45:13;8.15;;;2.50;;
66874;SDS011;53784;52.630;4.896;2023-07-29T02:47:38;9.45;;;2.50;;
66874;SDS011;53784;52.630;4.896;2023-07-29T02:50:04;6.47;;;2.33;;
66874;SDS011;53784;52.630;4.896;2023-07-29T02:52:29;6.40;;;2.60;;
66874;SDS011;53784;52.630;4.896;2023-07-29T02:54:55;6.80;;;2.70;;
66874;SDS011;53784;52.630;4.896;2023-07-29T02:57:20;8.77;;;2.35;;
66874;SDS011;53784;52.630;4.896;2023-07-29T02:59:45;7.65;;;2.75;;
66874;SDS011;53784;52.630;4.896;2023-07-29T03:02:11;7.85;;;2.38;;
66874;SDS011;53784;52.630;4.896;2023-07-29T03:04:36;6.63;;;2.20;;
66874;SDS011;53784;52.630;4.896;2023-07-29T03:07:02;8.07;;;2.30;;
66874;SDS011;53784;52.630;4.896;2023-07-29T03:09:28;7.32;;;2.28;;
66874;SDS011;53784;52.630;4.896;2023-07-29T03:11:53;9.23;;;2.40;;
66874;SDS011;53784;52.630;4.896;2023-07-29T03:14:19;7.05;;;2.58;;
66874;SDS011;53784;52.630;4.896;2023-07-29T03:16:45;10.00;;;2.72;;
66874;SDS011;53784;52.630;4.896;2023-07-29T03:19:11;8.05;;;2.40;;
66874;SDS011;53784;52.630;4.896;2023-07-29T03:21:37;9.80;;;2.58;;
66874;SDS011;53784;52.630;4.896;2023-07-29T03:24:02;9.18;;;2.80;;
66874;SDS011;53784;52.630;4.896;2023-07-29T03:26:28;6.95;;;2.53;;
66874;SDS011;53784;52.630;4.896;2023-07-29T03:28:53;10.02;;;2.92;;
66874;SDS011;53784;52.630;4.896;2023-07-29T03:31:18;8.18;;;2.70;;
66874;SDS011;53784;52.630;4.896;2023-07-29T03:33:44;8.52;;;2.80;;
66874;SDS011;53784;52.630;4.896;2023-07-29T03:36:09;7.43;;;2.88;;
66874;SDS011;53784;52.630;4.896;2023-07-29T03:38:34;9.63;;;2.83;;
66874;SDS011;53784;52.630;4.896;2023-07-29T03:41:00;10.13;;;2.88;;
66874;SDS011;53784;52.630;4.896;2023-07-29T03:43:27;8.80;;;2.90;;
66874;SDS011;53784;52.630;4.896;2023-07-29T03:45:53;8.85;;;3.30;;
66874;SDS011;53784;52.630;4.896;2023-07-29T03:48:18;11.65;;;3.00;;
66874;SDS011;53784;52.630;4.896;2023-07-29T03:50:43;6.32;;;2.50;;
66874;SDS011;53784;52.630;4.896;2023-07-29T03:53:09;7.47;;;2.70;;
66874;SDS011;53784;52.630;4.896;2023-07-29T03:55:34;8.48;;;2.80;;
66874;SDS011;53784;52.630;4.896;2023-07-29T03:58:00;7.57;;;2.22;;
66874;SDS011;53784;52.630;4.896;2023-07-29T04:00:25;9.57;;;2.85;;
66874;SDS011;53784;52.630;4.896;2023-07-29T04:02:51;10.05;;;2.78;;
66874;SDS011;53784;52.630;4.896;2023-07-29T04:05:17;9.32;;;2.50;;
66874;SDS011;53784;52.630;4.896;2023-07-29T04:07:43;9.50;;;2.42;;
66874;SDS011;53784;52.630;4.896;2023-07-29T04:10:09;8.88;;;2.55;;
66874;SDS011;53784;52.630;4.896;2023-07-29T04:12:34;12.07;;;2.45;;
66874;SDS011;53784;52.630;4.896;2023-07-29T04:14:59;6.88;;;2.45;;
66874;SDS011;53784;52.630;4.896;2023-07-29T04:17:25;6.90;;;2.30;;
66874;SDS011;53784;52.630;4.896;2023-07-29T04:19:50;7.00;;;2.30;;
66874;SDS011;53784;52.630;4.896;2023-07-29T04:22:15;6.65;;;2.50;;
66874;SDS011;53784;52.630;4.896;2023-07-29T04:24:41;7.60;;;2.42;;
66874;SDS011;53784;52.630;4.896;2023-07-29T04:27:06;7.90;;;2.65;;
66874;SDS011;53784;52.630;4.896;2023-07-29T04:29:32;7.65;;;2.70;;
66874;SDS011;53784;52.630;4.896;2023-07-29T04:31:57;9.90;;;3.00;;
66874;SDS011;53784;52.630;4.896;2023-07-29T04:34:22;7.75;;;2.63;;
66874;SDS011;53784;52.630;4.896;2023-07-29T04:36:48;7.32;;;3.10;;
66874;SDS011;53784;52.630;4.896;2023-07-29T04:39:14;8.63;;;2.55;;
66874;SDS011;53784;52.630;4.896;2023-07-29T04:41:39;8.85;;;2.60;;
66874;SDS011;53784;52.630;4.896;2023-07-29T04:44:04;10.88;;;3.03;;
66874;SDS011;53784;52.630;4.896;2023-07-29T04:46:30;8.75;;;2.30;;
66874;SDS011;53784;52.630;4.896;2023-07-29T04:48:55;9.70;;;2.50;;
66874;SDS011;53784;52.630;4.896;2023-07-29T04:51:21;9.52;;;2.20;;
66874;SDS011;53784;52.630;4.896;2023-07-29T04:53:46;7.35;;;2.20;;
66874;SDS011;53784;52.630;4.896;2023-07-29T04:56:11;8.80;;;2.00;;
66874;SDS011;53784;52.630;4.896;2023-07-29T04:58:37;7.93;;;2.08;;
66874;SDS011;53784;52.630;4.896;2023-07-29T05:01:02;9.43;;;2.20;;
66874;SDS011;53784;52.630;4.896;2023-07-29T05:03:28;5.93;;;1.95;;
66874;SDS011;53784;52.630;4.896;2023-07-29T05:05:53;7.60;;;1.88;;
66874;SDS011;53784;52.630;4.896;2023-07-29T05:08:20;7.25;;;2.00;;
66874;SDS011;53784;52.630;4.896;2023-07-29T05:10:49;8.00;;;2.25;;
66874;SDS011;53784;52.630;4.896;2023-07-29T05:13:15;7.28;;;2.28;;
66874;SDS011;53784;52.630;4.896;2023-07-29T05:15:40;8.88;;;2.30;;
66874;SDS011;53784;52.630;4.896;2023-07-29T05:18:05;8.18;;;2.17;;
66874;SDS011;53784;52.630;4.896;2023-07-29T05:20:31;7.15;;;2.10;;
66874;SDS011;53784;52.630;4.896;2023-07-29T05:22:56;6.88;;;2.00;;
66874;SDS011;53784;52.630;4.896;2023-07-29T05:25:21;5.45;;;1.92;;
66874;SDS011;53784;52.630;4.896;2023-07-29T05:27:47;7.25;;;2.20;;
66874;SDS011;53784;52.630;4.896;2023-07-29T05:30:12;8.52;;;2.15;;
66874;SDS011;53784;52.630;4.896;2023-07-29T05:32:37;8.23;;;2.20;;
66874;SDS011;53784;52.630;4.896;2023-07-29T05:35:03;7.47;;;1.95;;
66874;SDS011;53784;52.630;4.896;2023-07-29T05:37:29;7.85;;;2.00;;
66874;SDS011;53784;52.630;4.896;2023-07-29T05:39:54;7.15;;;2.20;;
66874;SDS011;53784;52.630;4.896;2023-07-29T05:42:19;8.40;;;2.10;;
66874;SDS011;53784;52.630;4.896;2023-07-29T05:44:44;7.13;;;1.92;;
66874;SDS011;53784;52.630;4.896;2023-07-29T05:47:10;9.40;;;2.17;;
66874;SDS011;53784;52.630;4.896;2023-07-29T05:49:35;10.90;;;2.10;;
66874;SDS011;53784;52.630;4.896;2023-07-29T05:52:01;5.15;;;1.85;;
66874;SDS011;53784;52.630;4.896;2023-07-29T05:54:26;7.55;;;1.88;;
66874;SDS011;53784;52.630;4.896;2023-07-29T05:56:51;8.00;;;1.90;;
66874;SDS011;53784;52.630;4.896;2023-07-29T05:59:17;9.23;;;1.83;;
66874;SDS011;53784;52.630;4.896;2023-07-29T06:01:42;6.25;;;1.65;;
66874;SDS011;53784;52.630;4.896;2023-07-29T06:04:07;7.55;;;2.13;;
66874;SDS011;53784;52.630;4.896;2023-07-29T06:06:33;6.82;;;1.90;;
66874;SDS011;53784;52.630;4.896;2023-07-29T06:08:58;6.43;;;1.55;;
66874;SDS011;53784;52.630;4.896;2023-07-29T06:11:23;8.02;;;2.03;;
66874;SDS011;53784;52.630;4.896;2023-07-29T06:13:49;7.43;;;2.10;;
66874;SDS011;53784;52.630;4.896;2023-07-29T06:16:14;8.32;;;2.10;;
66874;SDS011;53784;52.630;4.896;2023-07-29T06:18:39;9.32;;;1.90;;
66874;SDS011;53784;52.630;4.896;2023-07-29T06:21:05;7.45;;;2.00;;
66874;SDS011;53784;52.630;4.896;2023-07-29T06:23:32;8.27;;;1.80;;
66874;SDS011;53784;52.630;4.896;2023-07-29T06:25:58;10.00;;;1.92;;
66874;SDS011;53784;52.630;4.896;2023-07-29T06:28:25;6.55;;;1.70;;
66874;SDS011;53784;52.630;4.896;2023-07-29T06:30:50;7.15;;;1.85;;
66874;SDS011;53784;52.630;4.896;2023-07-29T06:33:16;7.70;;;2.15;;
66874;SDS011;53784;52.630;4.896;2023-07-29T06:35:41;10.48;;;2.05;;
66874;SDS011;53784;52.630;4.896;2023-07-29T06:38:06;7.45;;;1.90;;
66874;SDS011;53784;52.630;4.896;2023-07-29T06:40:32;8.57;;;2.10;;
66874;SDS011;53784;52.630;4.896;2023-07-29T06:42:57;10.05;;;2.15;;
66874;SDS011;53784;52.630;4.896;2023-07-29T06:45:22;9.52;;;2.00;;
66874;SDS011;53784;52.630;4.896;2023-07-29T06:47:48;9.15;;;2.08;;
66874;SDS011;53784;52.630;4.896;2023-07-29T06:50:13;7.70;;;1.80;;
66874;SDS011;53784;52.630;4.896;2023-07-29T06:52:38;9.75;;;1.92;;
66874;SDS011;53784;52.630;4.896;2023-07-29T06:55:05;10.68;;;2.22;;
66874;SDS011;53784;52.630;4.896;2023-07-29T06:57:30;6.03;;;2.08;;
66874;SDS011;53784;52.630;4.896;2023-07-29T06:59:56;7.90;;;1.90;;
66874;SDS011;53784;52.630;4.896;2023-07-29T07:02:21;7.75;;;1.75;;
66874;SDS011;53784;52.630;4.896;2023-07-29T07:04:46;6.35;;;1.73;;
66874;SDS011;53784;52.630;4.896;2023-07-29T07:07:12;6.60;;;1.50;;
66874;SDS011;53784;52.630;4.896;2023-07-29T07:09:37;8.65;;;1.75;;
66874;SDS011;53784;52.630;4.896;2023-07-29T07:12:02;7.53;;;1.63;;
66874;SDS011;53784;52.630;4.896;2023-07-29T07:14:28;5.70;;;1.75;;
66874;SDS011;53784;52.630;4.896;2023-07-29T07:16:53;4.72;;;1.50;;
66874;SDS011;53784;52.630;4.896;2023-07-29T07:19:18;7.40;;;1.77;;
66874;SDS011;53784;52.630;4.896;2023-07-29T07:21:44;6.63;;;1.50;;
66874;SDS011;53784;52.630;4.896;2023-07-29T07:24:09;5.30;;;1.55;;
66874;SDS011;53784;52.630;4.896;2023-07-29T07:26:34;6.93;;;1.60;;
66874;SDS011;53784;52.630;4.896;2023-07-29T07:29:00;6.13;;;1.55;;
66874;SDS011;53784;52.630;4.896;2023-07-29T07:31:25;6.15;;;1.60;;
66874;SDS011;53784;52.630;4.896;2023-07-29T07:33:50;5.78;;;1.42;;
66874;SDS011;53784;52.630;4.896;2023-07-29T07:36:16;5.03;;;1.58;;
66874;SDS011;53784;52.630;4.896;2023-07-29T07:38:41;6.13;;;1.50;;
66874;SDS011;53784;52.630;4.896;2023-07-29T07:41:06;4.93;;;1.30;;
66874;SDS011;53784;52.630;4.896;2023-07-29T07:43:32;6.90;;;1.50;;
66874;SDS011;53784;52.630;4.896;2023-07-29T07:45:57;3.65;;;1.35;;
66874;SDS011;53784;52.630;4.896;2023-07-29T07:48:24;5.32;;;1.50;;
66874;SDS011;53784;52.630;4.896;2023-07-29T07:50:49;5.50;;;1.50;;
66874;SDS011;53784;52.630;4.896;2023-07-29T07:53:15;5.73;;;1.47;;
66874;SDS011;53784;52.630;4.896;2023-07-29T07:55:40;6.13;;;1.30;;
66874;SDS011;53784;52.630;4.896;2023-07-29T07:58:05;6.17;;;1.33;;
66874;SDS011;53784;52.630;4.896;2023-07-29T08:00:30;4.72;;;1.17;;
66874;SDS011;53784;52.630;4.896;2023-07-29T08:02:56;4.78;;;1.42;;
66874;SDS011;53784;52.630;4.896;2023-07-29T08:05:21;6.20;;;1.48;;
66874;SDS011;53784;52.630;4.896;2023-07-29T08:07:46;4.22;;;1.30;;
66874;SDS011;53784;52.630;4.896;2023-07-29T08:10:12;6.05;;;1.55;;
66874;SDS011;53784;52.630;4.896;2023-07-29T08:12:37;5.47;;;1.40;;
66874;SDS011;53784;52.630;4.896;2023-07-29T08:15:02;3.55;;;1.17;;
66874;SDS011;53784;52.630;4.896;2023-07-29T08:17:28;4.90;;;1.33;;
66874;SDS011;53784;52.630;4.896;2023-07-29T08:19:53;6.07;;;1.50;;
66874;SDS011;53784;52.630;4.896;2023-07-29T08:22:18;6.65;;;1.30;;
66874;SDS011;53784;52.630;4.896;2023-07-29T08:24:45;7.85;;;1.60;;
66874;SDS011;53784;52.630;4.896;2023-07-29T08:27:10;5.72;;;1.50;;
66874;SDS011;53784;52.630;4.896;2023-07-29T08:29:36;7.85;;;1.40;;
66874;SDS011;53784;52.630;4.896;2023-07-29T08:32:01;7.10;;;1.65;;
66874;SDS011;53784;52.630;4.896;2023-07-29T08:34:26;5.15;;;1.50;;
66874;SDS011;53784;52.630;4.896;2023-07-29T08:36:52;6.13;;;1.58;;
66874;SDS011;53784;52.630;4.896;2023-07-29T08:39:17;7.05;;;1.63;;
66874;SDS011;53784;52.630;4.896;2023-07-29T08:41:48;7.57;;;1.63;;
66874;SDS011;53784;52.630;4.896;2023-07-29T08:44:22;5.03;;;1.40;;
66874;SDS011;53784;52.630;4.896;2023-07-29T08:46:49;7.00;;;1.50;;
66874;SDS011;53784;52.630;4.896;2023-07-29T08:49:15;6.97;;;1.80;;
66874;SDS011;53784;52.630;4.896;2023-07-29T08:51:44;7.28;;;1.60;;
66874;SDS011;53784;52.630;4.896;2023-07-29T08:54:09;6.65;;;1.60;;
66874;SDS011;53784;52.630;4.896;2023-07-29T08:56:35;5.63;;;1.60;;
66874;SDS011;53784;52.630;4.896;2023-07-29T08:59:01;7.70;;;1.63;;
66874;SDS011;53784;52.630;4.896;2023-07-29T09:01:27;8.23;;;1.83;;
66874;SDS011;53784;52.630;4.896;2023-07-29T09:03:53;6.20;;;1.80;;
66874;SDS011;53784;52.630;4.896;2023-07-29T09:06:18;8.07;;;1.90;;
66874;SDS011;53784;52.630;4.896;2023-07-29T09:08:45;5.45;;;1.90;;
66874;SDS011;53784;52.630;4.896;2023-07-29T09:11:12;5.85;;;1.65;;
66874;SDS011;53784;52.630;4.896;2023-07-29T09:13:38;4.80;;;1.80;;
66874;SDS011;53784;52.630;4.896;2023-07-29T09:16:04;8.07;;;1.98;;
66874;SDS011;53784;52.630;4.896;2023-07-29T09:18:29;7.20;;;1.98;;
66874;SDS011;53784;52.630;4.896;2023-07-29T09:20:55;7.65;;;2.13;;
66874;SDS011;53784;52.630;4.896;2023-07-29T09:23:23;7.78;;;2.08;;
66874;SDS011;53784;52.630;4.896;2023-07-29T09:25:49;7.55;;;1.90;;
66874;SDS011;53784;52.630;4.896;2023-07-29T09:28:15;7.18;;;1.70;;
66874;SDS011;53784;52.630;4.896;2023-07-29T09:30:41;6.03;;;1.80;;
66874;SDS011;53784;52.630;4.896;2023-07-29T09:33:08;7.32;;;2.00;;
66874;SDS011;53784;52.630;4.896;2023-07-29T09:35:34;8.25;;;1.70;;
66874;SDS011;53784;52.630;4.896;2023-07-29T09:38:13;8.15;;;2.08;;
66874;SDS011;53784;52.630;4.896;2023-07-29T09:40:40;6.07;;;1.70;;
66874;SDS011;53784;52.630;4.896;2023-07-29T09:43:06;6.45;;;2.00;;
66874;SDS011;53784;52.630;4.896;2023-07-29T09:45:33;7.18;;;2.00;;
66874;SDS011;53784;52.630;4.896;2023-07-29T09:48:00;6.70;;;2.10;;
66874;SDS011;53784;52.630;4.896;2023-07-29T09:50:26;5.65;;;2.00;;
66874;SDS011;53784;52.630;4.896;2023-07-29T09:52:52;6.28;;;2.00;;
66874;SDS011;53784;52.630;4.896;2023-07-29T09:55:19;7.38;;;1.95;;
66874;SDS011;53784;52.630;4.896;2023-07-29T09:57:46;6.22;;;1.90;;
66874;SDS011;53784;52.630;4.896;2023-07-29T10:00:12;5.55;;;1.80;;
66874;SDS011;53784;52.630;4.896;2023-07-29T10:02:39;6.10;;;1.90;;
66874;SDS011;53784;52.630;4.896;2023-07-29T10:05:05;6.53;;;2.00;;
66874;SDS011;53784;52.630;4.896;2023-07-29T10:07:31;5.07;;;1.70;;
66874;SDS011;53784;52.630;4.896;2023-07-29T10:09:56;7.25;;;1.90;;
66874;SDS011;53784;52.630;4.896;2023-07-29T10:12:22;7.50;;;2.03;;
66874;SDS011;53784;52.630;4.896;2023-07-29T10:14:49;6.03;;;1.90;;
66874;SDS011;53784;52.630;4.896;2023-07-29T10:17:15;5.40;;;1.83;;
66874;SDS011;53784;52.630;4.896;2023-07-29T10:19:41;6.28;;;1.85;;
66874;SDS011;53784;52.630;4.896;2023-07-29T10:22:07;5.20;;;1.80;;
66874;SDS011;53784;52.630;4.896;2023-07-29T10:24:33;5.03;;;1.80;;
66874;SDS011;53784;52.630;4.896;2023-07-29T10:27:01;5.50;;;1.73;;
66874;SDS011;53784;52.630;4.896;2023-07-29T10:29:28;6.20;;;1.80;;
66874;SDS011;53784;52.630;4.896;2023-07-29T10:31:57;6.07;;;1.90;;
66874;SDS011;53784;52.630;4.896;2023-07-29T10:34:22;4.35;;;1.70;;
66874;SDS011;53784;52.630;4.896;2023-07-29T10:36:49;6.25;;;1.88;;
66874;SDS011;53784;52.630;4.896;2023-07-29T10:39:15;7.72;;;1.98;;
66874;SDS011;53784;52.630;4.896;2023-07-29T10:41:59;5.90;;;1.92;;
66874;SDS011;53784;52.630;4.896;2023-07-29T10:44:45;6.07;;;1.90;;
66874;SDS011;53784;52.630;4.896;2023-07-29T10:49:48;6.05;;;1.77;;
66874;SDS011;53784;52.630;4.896;2023-07-29T10:52:16;5.45;;;1.85;;
66874;SDS011;53784;52.630;4.896;2023-07-29T10:54:45;4.72;;;1.73;;
66874;SDS011;53784;52.630;4.896;2023-07-29T10:57:15;5.75;;;1.85;;
66874;SDS011;53784;52.630;4.896;2023-07-29T10:59:41;5.45;;;1.58;;
66874;SDS011;53784;52.630;4.896;2023-07-29T11:02:17;5.75;;;2.08;;
66874;SDS011;53784;52.630;4.896;2023-07-29T11:04:50;5.38;;;1.85;;
66874;SDS011;53784;52.630;4.896;2023-07-29T11:17:39;4.43;;;1.52;;
66874;SDS011;53784;52.630;4.896;2023-07-29T11:20:06;5.30;;;1.70;;
66874;SDS011;53784;52.630;4.896;2023-07-29T11:22:34;4.03;;;1.60;;
66874;SDS011;53784;52.630;4.896;2023-07-29T11:25:01;3.45;;;1.40;;
66874;SDS011;53784;52.630;4.896;2023-07-29T11:27:26;5.05;;;1.45;;
66874;SDS011;53784;52.630;4.896;2023-07-29T11:29:56;5.47;;;1.10;;
66874;SDS011;53784;52.630;4.896;2023-07-29T11:32:25;4.03;;;1.35;;
66874;SDS011;53784;52.630;4.896;2023-07-29T11:34:50;5.18;;;1.38;;
66874;SDS011;53784;52.630;4.896;2023-07-29T11:37:16;5.13;;;1.30;;
66874;SDS011;53784;52.630;4.896;2023-07-29T11:39:42;5.20;;;1.42;;
66874;SDS011;53784;52.630;4.896;2023-07-29T11:42:11;5.50;;;1.60;;
66874;SDS011;53784;52.630;4.896;2023-07-29T11:44:36;3.83;;;1.40;;
66874;SDS011;53784;52.630;4.896;2023-07-29T11:47:02;5.20;;;1.60;;
66874;SDS011;53784;52.630;4.896;2023-07-29T11:49:27;4.50;;;1.60;;
66874;SDS011;53784;52.630;4.896;2023-07-29T11:51:52;5.28;;;1.60;;
66874;SDS011;53784;52.630;4.896;2023-07-29T11:54:18;5.13;;;1.60;;
66874;SDS011;53784;52.630;4.896;2023-07-29T11:56:46;4.32;;;1.42;;
66874;SDS011;53784;52.630;4.896;2023-07-29T11:59:11;3.92;;;1.65;;
66874;SDS011;53784;52.630;4.896;2023-07-29T12:01:37;4.57;;;1.60;;
66874;SDS011;53784;52.630;4.896;2023-07-29T12:04:03;3.22;;;1.48;;
66874;SDS011;53784;52.630;4.896;2023-07-29T12:06:29;4.75;;;1.70;;
66874;SDS011;53784;52.630;4.896;2023-07-29T12:08:56;5.20;;;1.63;;
66874;SDS011;53784;52.630;4.896;2023-07-29T12:11:22;2.97;;;1.50;;
66874;SDS011;53784;52.630;4.896;2023-07-29T12:13:47;3.00;;;1.50;;
66874;SDS011;53784;52.630;4.896;2023-07-29T12:16:15;3.27;;;1.60;;
66874;SDS011;53784;52.630;4.896;2023-07-29T12:18:42;4.05;;;1.80;;
66874;SDS011;53784;52.630;4.896;2023-07-29T12:21:08;4.18;;;1.60;;
66874;SDS011;53784;52.630;4.896;2023-07-29T12:23:33;3.90;;;1.70;;
66874;SDS011;53784;52.630;4.896;2023-07-29T12:25:59;3.67;;;1.90;;
66874;SDS011;53784;52.630;4.896;2023-07-29T12:28:25;3.83;;;1.77;;
66874;SDS011;53784;52.630;4.896;2023-07-29T12:30:54;2.90;;;1.60;;
66874;SDS011;53784;52.630;4.896;2023-07-29T12:33:29;2.90;;;1.70;;
66874;SDS011;53784;52.630;4.896;2023-07-29T12:35:59;3.83;;;1.80;;
66874;SDS011;53784;52.630;4.896;2023-07-29T12:38:27;3.28;;;1.40;;
66874;SDS011;53784;52.630;4.896;2023-07-29T12:40:53;3.55;;;1.60;;
66874;SDS011;53784;52.630;4.896;2023-07-29T12:43:19;3.67;;;1.37;;
66874;SDS011;53784;52.630;4.896;2023-07-29T12:45:44;3.53;;;1.27;;
66874;SDS011;53784;52.630;4.896;2023-07-29T12:48:10;4.18;;;1.20;;
66874;SDS011;53784;52.630;4.896;2023-07-29T12:50:35;4.13;;;1.25;;
66874;SDS011;53784;52.630;4.896;2023-07-29T12:53:01;3.60;;;1.08;;
66874;SDS011;53784;52.630;4.896;2023-07-29T12:55:26;3.00;;;1.20;;
66874;SDS011;53784;52.630;4.896;2023-07-29T12:57:52;3.17;;;0.97;;
66874;SDS011;53784;52.630;4.896;2023-07-29T13:00:17;3.20;;;1.08;;
66874;SDS011;53784;52.630;4.896;2023-07-29T13:02:43;2.85;;;1.02;;
66874;SDS011;53784;52.630;4.896;2023-07-29T13:05:09;3.05;;;1.10;;
66874;SDS011;53784;52.630;4.896;2023-07-29T13:07:36;2.72;;;1.02;;
66874;SDS011;53784;52.630;4.896;2023-07-29T13:10:02;2.75;;;1.00;;
66874;SDS011;53784;52.630;4.896;2023-07-29T13:12:28;3.10;;;0.95;;
66874;SDS011;53784;52.630;4.896;2023-07-29T13:14:53;3.85;;;1.20;;
66874;SDS011;53784;52.630;4.896;2023-07-29T13:17:18;3.25;;;0.95;;
66874;SDS011;53784;52.630;4.896;2023-07-29T13:19:44;4.47;;;1.10;;
66874;SDS011;53784;52.630;4.896;2023-07-29T13:22:09;6.38;;;0.90;;
66874;SDS011;53784;52.630;4.896;2023-07-29T13:24:34;4.40;;;1.08;;
66874;SDS011;53784;52.630;4.896;2023-07-29T13:26:59;3.53;;;0.90;;
66874;SDS011;53784;52.630;4.896;2023-07-29T13:29:25;3.35;;;0.90;;
66874;SDS011;53784;52.630;4.896;2023-07-29T13:31:50;4.88;;;0.90;;
66874;SDS011;53784;52.630;4.896;2023-07-29T13:34:15;2.85;;;0.90;;
66874;SDS011;53784;52.630;4.896;2023-07-29T13:36:41;2.83;;;0.70;;
66874;SDS011;53784;52.630;4.896;2023-07-29T13:39:06;4.47;;;1.00;;
66874;SDS011;53784;52.630;4.896;2023-07-29T13:41:31;3.30;;;0.88;;
66874;SDS011;53784;52.630;4.896;2023-07-29T13:43:57;3.50;;;0.80;;
66874;SDS011;53784;52.630;4.896;2023-07-29T13:46:22;2.00;;;0.77;;
66874;SDS011;53784;52.630;4.896;2023-07-29T13:48:47;2.05;;;0.70;;
66874;SDS011;53784;52.630;4.896;2023-07-29T13:51:12;2.42;;;0.80;;
66874;SDS011;53784;52.630;4.896;2023-07-29T13:53:38;3.00;;;0.80;;
66874;SDS011;53784;52.630;4.896;2023-07-29T13:56:04;3.92;;;1.00;;
66874;SDS011;53784;52.630;4.896;2023-07-29T13:58:29;3.72;;;0.80;;
66874;SDS011;53784;52.630;4.896;2023-07-29T14:00:55;2.80;;;0.80;;
66874;SDS011;53784;52.630;4.896;2023-07-29T14:03:20;4.50;;;1.10;;
66874;SDS011;53784;52.630;4.896;2023-07-29T14:05:45;4.25;;;0.70;;
66874;SDS011;53784;52.630;4.896;2023-07-29T14:08:11;4.70;;;0.98;;
66874;SDS011;53784;52.630;4.896;2023-07-29T14:10:36;4.53;;;0.90;;
66874;SDS011;53784;52.630;4.896;2023-07-29T14:13:01;4.90;;;1.00;;
66874;SDS011;53784;52.630;4.896;2023-07-29T14:15:27;4.13;;;0.80;;
66874;SDS011;53784;52.630;4.896;2023-07-29T14:17:53;2.78;;;0.93;;
66874;SDS011;53784;52.630;4.896;2023-07-29T14:20:18;3.22;;;1.08;;
66874;SDS011;53784;52.630;4.896;2023-07-29T14:22:44;4.40;;;0.90;;
66874;SDS011;53784;52.630;4.896;2023-07-29T14:25:09;3.58;;;1.00;;
66874;SDS011;53784;52.630;4.896;2023-07-29T14:27:35;5.47;;;1.08;;
66874;SDS011;53784;52.630;4.896;2023-07-29T14:30:00;4.18;;;1.00;;
66874;SDS011;53784;52.630;4.896;2023-07-29T14:32:26;3.97;;;0.90;;
66874;SDS011;53784;52.630;4.896;2023-07-29T14:34:52;3.63;;;1.10;;
66874;SDS011;53784;52.630;4.896;2023-07-29T14:37:17;3.53;;;1.10;;
66874;SDS011;53784;52.630;4.896;2023-07-29T14:39:42;3.85;;;0.90;;
66874;SDS011;53784;52.630;4.896;2023-07-29T14:42:08;2.63;;;0.95;;
66874;SDS011;53784;52.630;4.896;2023-07-29T14:44:33;2.88;;;1.00;;
66874;SDS011;53784;52.630;4.896;2023-07-29T14:46:58;4.32;;;1.15;;
66874;SDS011;53784;52.630;4.896;2023-07-29T14:49:24;4.68;;;1.02;;
66874;SDS011;53784;52.630;4.896;2023-07-29T14:51:49;3.88;;;1.17;;
66874;SDS011;53784;52.630;4.896;2023-07-29T14:54:14;3.38;;;1.17;;
66874;SDS011;53784;52.630;4.896;2023-07-29T14:56:40;3.95;;;1.15;;